Time;durP1;ratioP1;P1;durP2;ratioP2;P2;SDS_P1;SDS_P2;PMS_P1;PMS_P2;Temp;Humidity;BMP_temperature;BMP_pressure;BME280_temperature;BME280_humidity;BME280_pressure;Samples;Min_cycle;Max_cycle;Signal;HPM_P1;HPM_P2
2021/05/08 00:02:19;;;;;;;2.13;1.10;;;;;;;25.69;34.49;94477.59;4980672;28;20026;-69
2021/05/08 00:04:44;;;;;;;3.03;1.33;;;;;;;25.68;34.38;94492.53;4989227;28;20057;-68
2021/05/08 00:07:10;;;;;;;2.60;1.15;;;;;;;25.70;34.94;94501.66;4989361;28;20038;-69
2021/05/08 00:09:35;;;;;;;3.90;1.20;;;;;;;25.48;34.55;94447.50;4989423;28;20085;-69
2021/05/08 00:12:01;;;;;;;3.03;1.30;;;;;;;25.41;34.86;94447.44;4972049;28;20041;-68
2021/05/08 00:14:26;;;;;;;2.10;1.40;;;;;;;25.61;34.64;94482.25;4989341;28;20026;-68
2021/05/08 00:16:52;;;;;;;3.08;1.50;;;;;;;25.65;34.58;94493.59;4989517;28;20433;-68
2021/05/08 00:19:18;;;;;;;2.67;1.40;;;;;;;25.66;35.16;94495.78;4990099;28;20568;-67
2021/05/08 00:21:43;;;;;;;2.30;1.00;;;;;;;25.65;35.29;94515.47;4989003;28;20153;-67
2021/05/08 00:24:09;;;;;;;3.20;1.10;;;;;;;25.64;35.25;94508.53;4987290;28;20030;-68
2021/05/08 00:26:35;;;;;;;3.00;1.40;;;;;;;25.55;35.25;94512.47;4988511;28;20026;-67
2021/05/08 00:29:00;;;;;;;1.67;1.00;;;;;;;25.63;34.92;94518.00;4989901;28;20034;-68
2021/05/08 00:31:26;;;;;;;2.53;1.45;;;;;;;25.65;35.26;94532.63;4989445;28;20117;-67
2021/05/08 00:33:51;;;;;;;3.17;1.20;;;;;;;25.58;35.07;94532.53;4988282;28;20030;-68
2021/05/08 00:36:17;;;;;;;2.50;1.20;;;;;;;25.62;35.00;94550.09;4988835;28;20030;-67
2021/05/08 00:38:42;;;;;;;2.72;1.10;;;;;;;25.63;35.23;94556.28;4988445;28;20440;-68
2021/05/08 00:41:08;;;;;;;3.53;1.27;;;;;;;25.62;34.55;94560.28;4988505;28;20482;-67
2021/05/08 00:43:34;;;;;;;4.68;1.25;;;;;;;25.62;35.33;94565.75;4989880;28;20030;-68
2021/05/08 00:45:59;;;;;;;2.20;1.30;;;;;;;25.60;35.37;94573.75;4989546;28;20058;-67
2021/05/08 00:48:25;;;;;;;2.47;1.35;;;;;;;25.58;35.20;94587.25;4989756;28;20030;-67
2021/05/08 00:50:52;;;;;;;2.65;1.52;;;;;;;25.54;35.21;94593.03;4972340;28;20026;-67
2021/05/08 00:53:17;;;;;;;2.80;1.10;;;;;;;25.55;35.44;94594.50;4988987;28;20038;-67
2021/05/08 00:55:43;;;;;;;2.65;1.13;;;;;;;25.42;35.47;94585.63;4989554;28;20101;-67
2021/05/08 00:58:08;;;;;;;2.13;1.02;;;;;;;25.58;34.71;94614.59;4988547;28;20054;-69
2021/05/08 01:00:34;;;;;;;1.92;1.13;;;;;;;25.55;35.46;94623.84;4989529;28;20061;-68
2021/05/08 01:03:00;;;;;;;2.28;1.20;;;;;;;25.55;35.07;94637.53;4989396;28;20445;-68
2021/05/08 01:05:27;;;;;;;1.95;1.23;;;;;;;25.59;34.81;94648.84;4988111;28;20027;-69
2021/05/08 01:07:53;;;;;;;2.03;1.25;;;;;;;25.53;35.14;94667.38;4989110;28;20027;-69
2021/05/08 01:10:18;;;;;;;2.22;1.40;;;;;;;25.37;35.15;94660.31;4989105;28;20030;-69
2021/05/08 01:12:44;;;;;;;2.50;1.38;;;;;;;25.45;35.61;94688.44;4989208;28;20034;-69
2021/05/08 01:15:10;;;;;;;2.53;1.33;;;;;;;25.50;34.97;94684.84;4971733;28;20026;-68
2021/05/08 01:17:37;;;;;;;2.90;1.40;;;;;;;25.34;35.35;94661.38;4989426;28;20047;-69
2021/05/08 01:20:06;;;;;;;2.17;1.30;;;;;;;25.45;35.11;94704.84;4971798;28;20169;-69
2021/05/08 01:22:32;;;;;;;3.55;1.35;;;;;;;25.49;35.68;94710.75;4987655;28;20525;-68
2021/05/08 01:24:58;;;;;;;2.88;1.40;;;;;;;25.48;35.00;94720.19;4987602;28;20034;-68
2021/05/08 01:27:23;;;;;;;2.92;1.30;;;;;;;25.43;35.12;94718.31;4988788;28;20034;-69
2021/05/08 01:29:49;;;;;;;2.17;1.23;;;;;;;25.49;35.65;94732.63;4989055;28;20309;-69
2021/05/08 01:32:14;;;;;;;2.97;1.60;;;;;;;25.44;35.42;94719.78;4988980;28;20026;-69
2021/05/08 01:34:39;;;;;;;3.58;1.67;;;;;;;25.44;35.27;94733.44;4988453;28;20018;-68
2021/05/08 01:37:05;;;;;;;3.28;1.52;;;;;;;25.04;35.42;94682.88;4989040;28;20030;-69
2021/05/08 01:39:30;;;;;;;3.33;1.70;;;;;;;25.40;35.37;94752.19;4987476;28;20023;-69
2021/05/08 01:41:56;;;;;;;3.50;1.60;;;;;;;25.42;35.46;94749.66;4987879;28;20029;-69
2021/05/08 01:44:22;;;;;;;2.50;1.42;;;;;;;25.26;35.36;94730.88;4988535;28;20030;-69
2021/05/08 01:46:47;;;;;;;2.60;1.77;;;;;;;25.40;35.62;94741.25;4988500;28;20034;-69
2021/05/08 01:49:13;;;;;;;3.22;1.48;;;;;;;25.32;35.55;94745.91;4987257;28;20023;-68
2021/05/08 01:51:38;;;;;;;2.80;1.50;;;;;;;25.40;36.02;94752.19;4987396;28;20088;-69
2021/05/08 01:54:04;;;;;;;3.25;1.70;;;;;;;25.42;35.31;94758.59;4988449;28;20042;-69
2021/05/08 01:56:30;;;;;;;4.10;1.80;;;;;;;25.38;35.46;94765.63;4988520;28;20057;-69
2021/05/08 01:58:55;;;;;;;2.67;2.00;;;;;;;25.41;35.47;94761.84;4999072;28;20516;-69
2021/05/08 02:01:21;;;;;;;3.08;1.60;;;;;;;25.39;35.60;94772.59;4976064;28;20019;-68
2021/05/08 02:03:47;;;;;;;3.85;2.05;;;;;;;25.35;36.28;94772.16;4981618;28;20086;-68
2021/05/08 02:06:12;;;;;;;3.28;1.95;;;;;;;25.37;36.22;94766.91;4988409;28;20422;-69
2021/05/08 02:08:37;;;;;;;3.08;1.77;;;;;;;25.13;36.02;94755.50;4987209;28;20022;-69
2021/05/08 02:11:03;;;;;;;2.72;1.75;;;;;;;25.34;35.66;94771.44;4970399;28;20084;-69
2021/05/08 02:13:28;;;;;;;2.55;1.65;;;;;;;25.31;35.68;94790.91;4987184;28;20034;-69
2021/05/08 02:15:54;;;;;;;2.83;1.88;;;;;;;25.30;35.78;94796.88;4987971;28;20490;-68
2021/05/08 02:18:19;;;;;;;3.40;2.05;;;;;;;25.28;36.42;94800.16;4988036;28;20022;-69
2021/05/08 02:20:45;;;;;;;4.32;2.13;;;;;;;25.30;35.70;94796.88;4988092;28;20597;-69
2021/05/08 02:23:12;;;;;;;3.28;1.60;;;;;;;25.11;36.36;94775.16;4987845;28;20839;-68
2021/05/08 02:25:37;;;;;;;2.97;2.30;;;;;;;25.28;35.99;94797.41;4986915;28;20034;-69
2021/05/08 02:28:03;;;;;;;2.67;1.85;;;;;;;25.17;35.82;94788.69;4987974;28;20034;-68
2021/05/08 02:30:33;;;;;;;3.83;2.17;;;;;;;25.30;36.57;94808.56;4985823;28;20477;-69
2021/05/08 02:32:59;;;;;;;2.97;1.85;;;;;;;25.22;36.17;94818.66;4968333;28;20027;-69
2021/05/08 02:35:25;;;;;;;2.97;2.03;;;;;;;25.10;35.86;94795.53;4966897;28;20565;-69
2021/05/08 02:37:51;;;;;;;4.20;1.80;;;;;;;25.28;36.21;94838.41;4966855;28;20022;-68
2021/05/08 02:40:18;;;;;;;3.15;2.20;;;;;;;25.25;36.30;94834.00;4968335;28;20059;-69
2021/05/08 02:42:44;;;;;;;3.13;2.00;;;;;;;24.89;35.92;94786.44;4968785;28;20030;-69
2021/05/08 02:45:09;;;;;;;2.55;1.98;;;;;;;25.22;36.50;94826.84;4967287;28;20023;-68
2021/05/08 02:47:36;;;;;;;2.72;1.80;;;;;;;25.22;36.35;94834.31;4966940;28;20085;-68
2021/05/08 02:50:02;;;;;;;3.15;1.90;;;;;;;25.06;35.86;94814.22;4968355;28;20062;-69
2021/05/08 02:52:27;;;;;;;3.28;1.83;;;;;;;25.23;36.54;94850.19;4968381;28;20114;-68
2021/05/08 02:54:53;;;;;;;3.10;2.00;;;;;;;25.21;36.06;94855.44;4971441;28;20053;-69
2021/05/08 02:57:18;;;;;;;3.00;2.10;;;;;;;25.20;36.31;94853.97;4972782;28;20994;-69
2021/05/08 02:59:43;;;;;;;2.95;1.80;;;;;;;24.99;36.54;94839.47;4976069;28;20035;-68
2021/05/08 03:02:09;;;;;;;3.25;2.03;;;;;;;25.22;36.12;94867.13;4975257;28;20035;-68
2021/05/08 03:04:35;;;;;;;2.85;1.90;;;;;;;25.25;36.01;94869.53;4972148;28;20058;-68
2021/05/08 03:07:01;;;;;;;2.90;1.90;;;;;;;25.23;35.91;94891.19;4983877;28;20107;-69
2021/05/08 03:09:27;;;;;;;2.40;2.00;;;;;;;25.16;36.19;94886.34;4991248;28;20046;-69
2021/05/08 03:11:53;;;;;;;2.80;1.95;;;;;;;24.97;36.44;94863.78;4989566;28;20591;-68
2021/05/08 03:14:18;;;;;;;3.97;2.50;;;;;;;25.13;36.59;94881.19;4991509;28;20464;-68
2021/05/08 03:16:44;;;;;;;3.28;1.67;;;;;;;25.14;36.35;94899.81;4988012;28;20022;-68
2021/05/08 03:19:09;;;;;;;2.55;1.95;;;;;;;25.11;35.88;94895.38;4972023;28;20026;-68
2021/05/08 03:21:35;;;;;;;2.33;1.95;;;;;;;25.12;36.57;94902.31;4971963;28;20019;-68
2021/05/08 03:24:02;;;;;;;4.10;1.90;;;;;;;25.12;36.65;94912.50;4971775;28;20516;-68
2021/05/08 03:26:27;;;;;;;2.38;1.90;;;;;;;25.12;36.69;94921.44;4971445;28;20026;-68
2021/05/08 03:28:53;;;;;;;3.47;1.70;;;;;;;24.93;36.36;94896.16;4970261;28;20078;-68
2021/05/08 03:31:18;;;;;;;3.35;1.60;;;;;;;25.09;35.48;94929.94;4988489;28;20112;-70
2021/05/08 03:33:44;;;;;;;1.83;1.42;;;;;;;25.09;34.87;94930.69;4990889;28;20040;-69
2021/05/08 03:36:09;;;;;;;3.10;1.67;;;;;;;25.07;34.86;94937.94;4991050;28;20037;-69
2021/05/08 03:38:35;;;;;;;3.75;1.63;;;;;;;24.82;34.98;94922.19;4989393;28;20022;-71
2021/05/08 03:41:01;;;;;;;2.15;1.50;;;;;;;24.84;35.23;94932.06;4988062;28;20410;-71
2021/05/08 03:43:26;;;;;;;2.00;1.42;;;;;;;25.00;35.03;94955.66;4977699;28;20029;-71
2021/05/08 03:45:51;;;;;;;3.47;1.60;;;;;;;24.97;35.61;94966.88;5003751;28;20041;-71
2021/05/08 03:48:17;;;;;;;2.30;1.48;;;;;;;24.77;35.08;94974.88;4982097;28;20026;-71
2021/05/08 03:50:42;;;;;;;4.28;1.30;;;;;;;24.63;35.81;94937.84;4986929;28;20089;-70
2021/05/08 03:53:08;;;;;;;2.13;1.50;;;;;;;24.87;35.25;94973.97;5003991;28;20026;-71
2021/05/08 03:55:34;;;;;;;2.65;1.48;;;;;;;24.87;35.10;94977.47;4995532;28;20022;-71
2021/05/08 03:58:00;;;;;;;1.80;1.50;;;;;;;24.91;35.03;94964.22;5002292;28;20026;-71
2021/05/08 04:00:26;;;;;;;2.08;1.42;;;;;;;24.91;35.35;94979.88;4989913;28;20049;-71
2021/05/08 04:02:51;;;;;;;1.80;1.40;;;;;;;25.00;35.09;94983.00;4990521;28;20391;-71
2021/05/08 04:05:17;;;;;;;2.08;1.30;;;;;;;25.07;35.10;94987.84;4993261;28;20503;-71
2021/05/08 04:07:43;;;;;;;2.63;1.60;;;;;;;25.13;34.53;94991.25;4979058;28;20206;-71
2021/05/08 04:10:09;;;;;;;2.17;1.48;;;;;;;25.18;34.47;95004.06;4990600;28;20019;-71
2021/05/08 04:12:34;;;;;;;2.67;1.70;;;;;;;25.29;34.72;95005.88;4981858;28;20030;-72
2021/05/08 04:15:00;;;;;;;2.70;1.60;;;;;;;25.29;34.00;95003.16;4988652;28;20502;-71
2021/05/08 04:17:25;;;;;;;2.00;1.70;;;;;;;25.25;34.04;94998.00;4985942;28;20031;-71
2021/05/08 04:19:51;;;;;;;2.30;1.60;;;;;;;25.37;33.90;95000.03;4987346;28;20096;-71
2021/05/08 04:22:16;;;;;;;2.20;1.83;;;;;;;25.50;33.99;95002.03;4981922;28;20191;-70
2021/05/08 04:24:42;;;;;;;2.78;1.77;;;;;;;25.51;34.08;95003.53;4987286;28;20509;-71
2021/05/08 04:27:07;;;;;;;2.38;1.80;;;;;;;25.60;33.56;95016.78;4983465;28;20040;-71
2021/05/08 04:29:33;;;;;;;2.10;1.70;;;;;;;25.70;33.88;95009.69;4993877;28;20022;-71
2021/05/08 04:31:58;;;;;;;2.13;1.75;;;;;;;25.61;33.04;95001.88;4993589;28;20142;-71
2021/05/08 04:34:24;;;;;;;2.60;1.90;;;;;;;25.75;33.42;95017.06;4990541;28;20030;-71
2021/05/08 04:36:49;;;;;;;2.25;1.70;;;;;;;25.79;33.33;95028.44;4988445;28;20034;-69
2021/05/08 04:39:14;;;;;;;3.05;1.52;;;;;;;25.89;33.15;95017.28;4978744;28;20461;-70
2021/05/08 04:41:40;;;;;;;2.85;1.80;;;;;;;25.95;33.12;95020.66;4983261;28;20049;-71
2021/05/08 04:44:06;;;;;;;2.28;1.60;;;;;;;25.88;32.78;95004.84;4987505;28;20041;-73
2021/05/08 04:46:31;;;;;;;4.70;2.38;;;;;;;26.12;33.30;95028.56;4983426;28;20188;-71
2021/05/08 04:48:57;;;;;;;1.95;1.42;;;;;;;26.16;33.33;95028.94;4983385;28;20049;-71
2021/05/08 04:51:22;;;;;;;3.33;1.75;;;;;;;26.17;33.15;95035.91;4983427;28;20041;-71
2021/05/08 04:53:51;;;;;;;1.80;1.60;;;;;;;26.18;32.58;95054.56;4987616;28;20093;-70
2021/05/08 04:56:16;;;;;;;1.70;1.60;;;;;;;26.23;33.25;95040.00;4980524;28;20038;-71
2021/05/08 04:58:43;;;;;;;1.98;1.73;;;;;;;26.04;32.86;95022.97;4942154;28;20073;-76
2021/05/08 05:01:09;;;;;;;1.60;1.50;;;;;;;26.20;32.15;95046.53;4988999;28;20429;-71
2021/05/08 05:03:35;;;;;;;2.13;1.80;;;;;;;26.16;32.31;95051.59;4999785;28;20135;-72
2021/05/08 05:06:00;;;;;;;1.58;1.30;;;;;;;25.97;32.25;95050.97;4992194;28;20034;-73
2021/05/08 05:08:26;;;;;;;1.30;1.20;;;;;;;25.97;31.62;95040.00;4997064;28;20033;-71
2021/05/08 05:10:52;;;;;;;1.55;1.30;;;;;;;25.91;32.07;95042.13;4992319;28;20128;-72
2021/05/08 05:13:18;;;;;;;1.60;1.35;;;;;;;25.42;31.56;94984.78;4994248;28;20030;-71
2021/05/08 05:15:43;;;;;;;2.33;1.35;;;;;;;25.83;31.79;95041.28;4993399;28;20517;-74
2021/05/08 05:18:09;;;;;;;2.30;1.33;;;;;;;25.72;31.80;95042.72;4991221;28;20022;-73
2021/05/08 05:20:34;;;;;;;2.67;1.30;;;;;;;25.64;31.94;95047.31;4995530;28;20037;-72
2021/05/08 05:23:00;;;;;;;2.10;1.25;;;;;;;25.72;31.14;95050.94;4989591;28;20029;-71
2021/05/08 05:25:25;;;;;;;1.17;1.02;;;;;;;25.79;30.89;95062.72;4993330;28;20042;-71
2021/05/08 05:27:51;;;;;;;3.65;1.10;;;;;;;25.62;31.48;95058.78;4987704;28;20026;-70
2021/05/08 05:30:16;;;;;;;1.52;0.95;;;;;;;25.60;31.34;95066.03;4995896;28;20030;-71
2021/05/08 05:32:42;;;;;;;3.05;1.10;;;;;;;25.48;31.64;95070.19;4990511;28;20038;-71
2021/05/08 05:35:08;;;;;;;1.50;1.10;;;;;;;25.47;31.07;95079.66;4987341;28;20084;-71
2021/05/08 05:37:33;;;;;;;3.25;0.95;;;;;;;25.44;31.53;95097.09;4988289;28;20045;-71
2021/05/08 05:39:58;;;;;;;1.02;0.90;;;;;;;25.48;31.08;95087.34;4988357;28;20469;-73
2021/05/08 05:42:24;;;;;;;1.40;0.90;;;;;;;25.46;31.40;95094.59;4988274;28;20038;-73
2021/05/08 05:44:49;;;;;;;1.20;1.00;;;;;;;25.56;31.54;95092.94;4987869;28;20034;-72
2021/05/08 05:47:21;;;;;;;1.95;1.20;;;;;;;25.40;31.76;95096.69;4989972;28;20045;-71
2021/05/08 05:49:51;;;;;;;1.60;1.00;;;;;;;25.41;31.62;95098.13;4988271;28;20088;-71
2021/05/08 05:52:17;;;;;;;1.40;0.90;;;;;;;25.36;30.86;95090.78;4978884;28;20104;-70
2021/05/08 05:54:43;;;;;;;1.65;1.00;;;;;;;25.42;31.49;95094.16;4976271;28;20034;-75
2021/05/08 05:57:09;;;;;;;1.63;0.90;;;;;;;25.28;31.45;95089.91;4983477;28;20034;-75
2021/05/08 05:59:34;;;;;;;2.00;0.95;;;;;;;25.39;31.10;95100.66;4985493;28;20061;-75
2021/05/08 06:02:00;;;;;;;1.60;0.90;;;;;;;25.28;31.30;95106.31;4992703;28;20017;-76
2021/05/08 06:04:25;;;;;;;2.17;0.88;;;;;;;25.29;31.57;95118.72;4997878;28;20046;-77
2021/05/08 06:06:51;;;;;;;1.10;0.90;;;;;;;25.26;30.83;95114.31;4994311;28;20049;-74
2021/05/08 06:09:16;;;;;;;1.45;0.90;;;;;;;25.10;31.73;95107.06;4984636;28;20042;-72
2021/05/08 06:11:41;;;;;;;1.40;1.00;;;;;;;25.18;31.09;95135.25;4987695;28;20030;-71
2021/05/08 06:14:07;;;;;;;1.65;0.90;;;;;;;25.17;31.62;95138.50;4989033;28;20513;-71
2021/05/08 06:16:32;;;;;;;0.98;0.80;;;;;;;25.11;31.38;95146.81;4985690;28;20047;-74
2021/05/08 06:18:58;;;;;;;0.90;0.77;;;;;;;25.13;31.75;95155.22;4987210;28;20409;-72
2021/05/08 06:21:23;;;;;;;1.15;0.93;;;;;;;25.17;31.62;95144.75;4988393;28;20109;-73
2021/05/08 06:23:49;;;;;;;1.50;0.80;;;;;;;25.24;31.13;95155.06;4987541;28;20030;-72
2021/05/08 06:26:15;;;;;;;1.48;0.90;;;;;;;25.16;31.29;95137.78;4987547;28;20598;-72
2021/05/08 06:28:40;;;;;;;2.45;0.82;;;;;;;25.24;31.54;95149.59;4986463;28;20461;-71
2021/05/08 06:31:05;;;;;;;3.10;0.82;;;;;;;25.35;30.86;95139.25;4987319;28;20022;-74
2021/05/08 06:33:31;;;;;;;1.45;0.90;;;;;;;25.30;30.73;95147.53;4985998;28;20034;-74
2021/05/08 06:35:56;;;;;;;0.85;0.80;;;;;;;25.30;31.15;95136.59;4982049;28;20498;-72
2021/05/08 06:38:22;;;;;;;1.52;0.80;;;;;;;25.01;31.19;95104.69;4980508;28;20022;-72
2021/05/08 06:40:48;;;;;;;1.70;1.10;;;;;;;25.34;30.91;95129.56;4982583;28;20035;-72
2021/05/08 06:43:13;;;;;;;1.65;0.75;;;;;;;25.37;30.96;95130.53;4973161;28;20540;-72
2021/05/08 06:45:39;;;;;;;2.15;0.90;;;;;;;25.42;30.68;95137.91;4981118;28;20034;-71
2021/05/08 06:48:07;;;;;;;2.47;0.95;;;;;;;25.42;31.30;95144.09;4974881;28;20089;-71
2021/05/08 06:50:32;;;;;;;2.92;0.90;;;;;;;25.48;31.02;95119.41;4980963;28;20037;-72
2021/05/08 06:52:58;;;;;;;4.38;1.13;;;;;;;25.45;31.04;95131.41;4975957;28;20015;-72
2021/05/08 06:55:23;;;;;;;2.05;1.27;;;;;;;25.67;29.75;95139.31;4985104;28;20030;-75
2021/05/08 06:57:49;;;;;;;2.72;1.20;;;;;;;25.41;30.68;95136.41;4979865;28;20065;-70
2021/05/08 07:00:16;;;;;;;1.75;1.20;;;;;;;25.27;30.50;95140.34;4985421;28;20452;-68
2021/05/08 07:02:41;;;;;;;1.52;1.10;;;;;;;25.27;31.32;95147.84;4980477;28;20033;-72
2021/05/08 07:05:07;;;;;;;1.38;1.08;;;;;;;25.35;31.03;95127.56;4987893;28;20034;-75
2021/05/08 07:07:33;;;;;;;2.38;1.30;;;;;;;25.30;30.97;95142.06;4980402;28;20093;-72
2021/05/08 07:09:58;;;;;;;1.60;1.30;;;;;;;25.37;30.88;95141.47;4988717;28;20026;-73
2021/05/08 07:12:24;;;;;;;2.88;1.58;;;;;;;25.32;30.99;95150.50;4983999;28;20100;-71
2021/05/08 07:14:49;;;;;;;1.58;1.20;;;;;;;25.37;31.37;95146.94;4985022;28;20390;-73
2021/05/08 07:17:15;;;;;;;2.47;1.40;;;;;;;25.35;31.56;95161.13;4982999;28;20042;-73
2021/05/08 07:19:40;;;;;;;1.65;1.23;;;;;;;25.42;31.45;95154.31;4984561;28;20418;-72
2021/05/08 07:22:06;;;;;;;1.70;1.35;;;;;;;25.33;31.49;95174.59;4983447;28;20592;-72
2021/05/08 07:24:31;;;;;;;1.77;1.40;;;;;;;25.37;31.34;95190.69;4986006;28;20784;-73
2021/05/08 07:26:57;;;;;;;3.63;1.52;;;;;;;25.40;30.71;95173.97;4983144;28;20038;-70
2021/05/08 07:29:24;;;;;;;3.05;1.60;;;;;;;25.46;30.59;95173.91;4994779;28;20034;-72
2021/05/08 07:31:50;;;;;;;3.40;1.60;;;;;;;25.79;30.92;95155.00;5003871;28;20137;-70
2021/05/08 07:34:15;;;;;;;2.30;1.80;;;;;;;26.00;30.82;95159.38;4997709;28;20927;-71
2021/05/08 07:36:40;;;;;;;2.30;1.27;;;;;;;26.16;30.51;95143.94;4987079;28;20461;-73
2021/05/08 07:39:06;;;;;;;1.65;1.55;;;;;;;26.30;30.44;95176.31;4986665;28;20050;-71
2021/05/08 07:41:31;;;;;;;2.47;1.60;;;;;;;26.36;30.62;95152.31;4981488;28;20042;-74
2021/05/08 07:43:57;;;;;;;1.48;1.30;;;;;;;26.42;29.95;95161.16;4979436;28;20018;-71
2021/05/08 07:46:22;;;;;;;1.95;1.73;;;;;;;26.34;30.71;95154.84;4986017;28;20038;-69
2021/05/08 07:48:48;;;;;;;1.90;1.60;;;;;;;26.02;30.12;95167.81;4975801;28;20030;-73
2021/05/08 07:51:14;;;;;;;3.47;1.80;;;;;;;26.05;29.87;95150.34;4985016;28;20026;-70
2021/05/08 07:53:39;;;;;;;3.28;2.20;;;;;;;25.56;30.63;95158.56;4973833;28;20026;-72
2021/05/08 07:56:05;;;;;;;2.97;2.00;;;;;;;25.41;30.79;95158.28;4983680;28;20031;-76
2021/05/08 07:58:30;;;;;;;3.45;2.20;;;;;;;25.49;30.72;95159.91;4979160;28;20462;-76
2021/05/08 08:00:56;;;;;;;4.60;1.90;;;;;;;25.47;30.08;95178.84;4984643;28;20088;-76
2021/05/08 08:03:21;;;;;;;2.00;1.80;;;;;;;25.47;30.33;95162.44;4971613;28;20085;-76
2021/05/08 08:05:47;;;;;;;5.50;2.45;;;;;;;25.44;30.52;95163.47;4983640;28;20031;-74
2021/05/08 08:08:12;;;;;;;1.98;1.75;;;;;;;25.42;30.00;95165.25;4970790;28;20074;-75
2021/05/08 08:10:37;;;;;;;2.50;1.80;;;;;;;25.40;30.16;95170.50;4981612;28;20050;-73
2021/05/08 08:13:03;;;;;;;2.40;2.08;;;;;;;25.46;30.63;95157.50;4984681;28;20034;-74
2021/05/08 08:15:29;;;;;;;3.08;1.88;;;;;;;25.35;30.32;95176.78;4989845;28;20033;-72
2021/05/08 08:17:54;;;;;;;2.97;2.17;;;;;;;25.38;29.93;95165.56;4988290;28;20030;-72
2021/05/08 08:20:20;;;;;;;2.70;2.28;;;;;;;25.33;30.40;95176.56;4990829;28;20046;-74
2021/05/08 08:22:45;;;;;;;4.10;2.47;;;;;;;25.37;30.27;95182.47;4989560;28;20031;-75
2021/05/08 08:25:11;;;;;;;1.85;1.75;;;;;;;25.28;30.54;95177.38;4987744;28;20029;-69
2021/05/08 08:27:37;;;;;;;4.70;1.92;;;;;;;25.24;30.10;95187.88;5002020;28;20038;-71
2021/05/08 08:30:05;;;;;;;3.10;2.15;;;;;;;25.35;30.42;95183.00;5004269;28;20096;-69
2021/05/08 08:32:30;;;;;;;4.20;1.88;;;;;;;25.40;29.82;95190.38;4987929;28;20490;-72
2021/05/08 08:34:55;;;;;;;2.30;2.10;;;;;;;25.41;30.44;95191.09;4990405;28;20030;-72
2021/05/08 08:37:21;;;;;;;3.80;1.92;;;;;;;25.09;30.10;95162.97;4982144;28;20120;-69
2021/05/08 08:39:46;;;;;;;2.20;2.00;;;;;;;25.36;29.75;95200.13;4981419;28;20022;-69
2021/05/08 08:42:12;;;;;;;2.55;2.20;;;;;;;25.31;30.39;95197.50;4982486;28;20026;-70
2021/05/08 08:44:37;;;;;;;3.17;2.25;;;;;;;25.37;29.71;95196.88;4980306;28;20035;-73
2021/05/08 08:47:04;;;;;;;3.22;2.35;;;;;;;25.34;29.93;95197.19;4983163;28;20125;-73
2021/05/08 08:49:29;;;;;;;2.60;2.05;;;;;;;25.22;30.31;95195.84;4979341;28;20508;-71
2021/05/08 08:51:55;;;;;;;2.90;2.35;;;;;;;25.35;30.09;95198.66;4982565;28;20030;-71
2021/05/08 08:54:20;;;;;;;3.13;2.42;;;;;;;25.45;29.40;95186.81;4978409;28;20064;-71
2021/05/08 08:56:46;;;;;;;2.67;1.83;;;;;;;25.36;30.34;95183.72;4981977;28;20026;-70
2021/05/08 09:01:46;;;;;;;3.65;2.30;;;;;;;25.23;30.32;95191.13;4981255;28;20045;-69
2021/05/08 09:04:15;;;;;;;2.67;2.10;;;;;;;25.18;29.92;95186.47;4976774;28;20086;-70
2021/05/08 09:06:41;;;;;;;4.43;2.28;;;;;;;25.23;30.52;95185.66;4987025;28;20030;-70
2021/05/08 09:09:08;;;;;;;2.58;2.17;;;;;;;25.23;30.12;95191.13;4999586;28;20034;-70
2021/05/08 09:11:34;;;;;;;2.47;2.20;;;;;;;25.29;30.01;95173.41;4997706;28;20036;-69
2021/05/08 09:14:23;;;;;;;2.58;2.20;;;;;;;25.22;30.10;95184.91;5014128;28;20041;-70
2021/05/08 09:17:08;;;;;;;2.60;2.40;;;;;;;25.22;30.61;95179.44;4990054;28;20093;-70
2021/05/08 09:19:38;;;;;;;4.47;2.65;;;;;;;25.21;30.45;95180.69;4997673;28;20034;-72
2021/05/08 09:22:23;;;;;;;2.67;2.40;;;;;;;25.35;30.56;95165.84;4979688;28;20573;-71
2021/05/08 09:24:59;;;;;;;3.15;2.50;;;;;;;25.38;30.65;95167.53;4998983;28;20022;-72
2021/05/08 09:27:47;;;;;;;2.67;2.28;;;;;;;25.29;30.52;95176.13;4982433;28;20045;-71
2021/05/08 09:30:29;;;;;;;2.50;2.30;;;;;;;25.38;29.78;95153.88;4990503;28;20048;-73
2021/05/08 09:32:54;;;;;;;2.70;2.40;;;;;;;25.45;30.35;95150.53;4988877;28;20046;-72
2021/05/08 09:35:26;;;;;;;2.78;2.58;;;;;;;25.50;30.16;95155.19;4988157;28;20533;-72
2021/05/08 09:38:05;;;;;;;2.78;2.42;;;;;;;25.57;29.92;95155.31;4981428;28;20030;-72
2021/05/08 09:40:30;;;;;;;6.87;2.50;;;;;;;25.55;29.43;95157.13;4983665;28;20049;-71
2021/05/08 09:42:56;;;;;;;2.55;2.10;;;;;;;25.49;29.74;95148.97;4986862;28;20038;-72
2021/05/08 09:45:23;;;;;;;2.83;2.10;;;;;;;25.55;29.35;95157.84;4985638;28;20038;-74
2021/05/08 09:47:49;;;;;;;3.17;2.00;;;;;;;25.54;29.72;95155.63;4985574;28;20494;-73
2021/05/08 09:50:14;;;;;;;2.40;1.80;;;;;;;25.59;30.04;95152.06;4993448;28;20125;-72
2021/05/08 09:52:44;;;;;;;2.08;1.88;;;;;;;25.56;30.07;95147.63;4985272;28;20045;-73
2021/05/08 09:55:11;;;;;;;2.45;1.83;;;;;;;25.62;29.81;95161.97;4989052;28;20077;-72
2021/05/08 09:57:36;;;;;;;2.22;1.52;;;;;;;25.59;29.24;95146.59;4985483;28;20022;-72
2021/05/08 10:00:02;;;;;;;3.13;1.70;;;;;;;25.64;29.80;95156.72;4983079;28;20406;-73
2021/05/08 10:02:27;;;;;;;2.10;1.60;;;;;;;25.70;29.38;95162.88;4984992;28;20100;-75
2021/05/08 10:05:02;;;;;;;3.90;1.73;;;;;;;25.65;29.26;95161.72;4985007;28;20047;-76
2021/05/08 10:07:32;;;;;;;3.05;1.45;;;;;;;25.69;29.57;95172.34;4984880;28;20041;-74
2021/05/08 10:09:58;;;;;;;2.95;1.35;;;;;;;25.78;29.37;95169.22;4985428;28;20069;-74
2021/05/08 10:12:25;;;;;;;2.47;1.50;;;;;;;25.82;29.11;95171.13;4978348;28;20201;-74
2021/05/08 10:14:52;;;;;;;1.90;1.70;;;;;;;25.81;29.07;95175.13;4991190;28;20029;-74
2021/05/08 10:17:27;;;;;;;1.92;1.50;;;;;;;25.91;28.72;95162.50;4993307;28;20037;-72
2021/05/08 10:20:04;;;;;;;2.80;1.40;;;;;;;25.47;29.25;95113.22;4992908;28;20022;-71
2021/05/08 10:22:34;;;;;;;2.45;1.52;;;;;;;25.77;28.71;95163.00;5002148;28;20085;-72
2021/05/08 10:25:03;;;;;;;;;;;;;;;25.84;28.78;95168.63;4987182;28;20053;-71
2021/05/08 10:27:29;;;;;;;2.03;1.50;;;;;;;25.76;28.57;95149.84;4977460;28;20436;-72
2021/05/08 10:29:54;;;;;;;1.77;1.48;;;;;;;25.86;28.96;95160.63;4983610;28;20038;-71
2021/05/08 10:32:19;;;;;;;1.65;1.35;;;;;;;25.70;28.54;95124.59;4964195;28;20121;-70
2021/05/08 10:34:53;;;;;;;1.73;1.23;;;;;;;25.73;28.94;95134.50;4968126;28;20026;-71
2021/05/08 10:37:18;;;;;;;1.95;1.38;;;;;;;25.96;28.38;95158.22;4982594;28;20081;-73
2021/05/08 10:40:00;;;;;;;1.63;1.30;;;;;;;25.93;28.44;95149.06;4980018;28;20026;-72
2021/05/08 10:42:42;;;;;;;2.70;1.42;;;;;;;25.90;28.13;95138.41;4979521;28;20508;-70
2021/05/08 10:45:17;;;;;;;2.85;1.60;;;;;;;25.91;28.54;95159.06;4984718;28;20152;-71
2021/05/08 10:47:59;;;;;;;2.13;1.15;;;;;;;25.88;28.03;95146.41;4984977;28;20596;-72
2021/05/08 10:50:34;;;;;;;3.92;1.40;;;;;;;25.85;28.23;95153.66;4998033;28;20501;-73
2021/05/08 10:53:00;;;;;;;2.63;1.20;;;;;;;25.73;27.51;95112.59;4991971;28;20164;-72
2021/05/08 10:55:25;;;;;;;2.53;1.20;;;;;;;25.75;27.11;95121.00;5002629;28;21163;-73
2021/05/08 10:58:14;;;;;;;2.55;1.20;;;;;;;25.87;27.19;95140.22;4966122;28;20022;-71
2021/05/08 11:00:57;;;;;;;1.50;1.08;;;;;;;25.87;27.38;95144.94;4988757;28;20406;-71
2021/05/08 11:03:27;;;;;;;1.83;1.00;;;;;;;25.83;26.98;95161.66;4997130;28;20177;-74
2021/05/08 11:06:03;;;;;;;1.13;1.02;;;;;;;25.85;27.18;95169.34;5001243;28;20048;-74
2021/05/08 11:08:29;;;;;;;1.88;1.00;;;;;;;25.84;26.99;95157.66;4982885;28;20463;-72
2021/05/08 11:10:58;;;;;;;3.53;1.35;;;;;;;25.87;26.73;95151.16;4993339;28;20543;-72
2021/05/08 11:13:25;;;;;;;2.53;1.40;;;;;;;25.65;27.38;95128.88;4998886;28;20113;-72
2021/05/08 11:16:11;;;;;;;2.72;1.10;;;;;;;25.66;27.12;95124.88;4997656;28;20064;-73
2021/05/08 11:18:40;;;;;;;1.70;1.00;;;;;;;25.88;26.94;95147.13;4998576;28;20429;-72
2021/05/08 11:21:13;;;;;;;2.00;1.10;;;;;;;26.02;27.64;95145.19;5001354;28;20077;-73
2021/05/08 11:24:07;;;;;;;2.72;1.10;;;;;;;25.86;26.68;95144.19;5005485;28;20116;-73
2021/05/08 11:26:34;;;;;;;1.60;1.02;;;;;;;25.84;27.15;95141.25;4997018;28;20053;-75
2021/05/08 11:29:03;;;;;;;1.52;0.90;;;;;;;25.90;26.88;95147.38;4987466;28;20057;-75
2021/05/08 11:31:38;;;;;;;1.80;1.10;;;;;;;25.91;26.61;95157.03;4992426;28;20045;-75
2021/05/08 11:34:13;;;;;;;1.60;0.98;;;;;;;25.93;26.60;95148.31;4985195;28;20037;-76
2021/05/08 11:36:42;;;;;;;2.85;1.17;;;;;;;26.04;27.05;95143.41;4989680;28;20403;-75